Time;durP1;ratioP1;P1;durP2;ratioP2;P2;SDS_P1;SDS_P2;PMS_P1;PMS_P2;Temp;Humidity;BMP_temperature;BMP_pressure;BME280_temperature;BME280_humidity;BME280_pressure;Samples;Min_cycle;Max_cycle;Signal;HPM_P1;HPM_P2
2022/08/10 00:01:30;;;;;;;2.25;1.80;;;;;;;21.87;100.00;100065.41;1647645;87;21133;-67
2022/08/10 00:04:00;;;;;;;3.50;1.47;;;;;;;21.84;100.00;100057.14;1651756;86;21074;-66
2022/08/10 00:06:31;;;;;;;2.52;1.42;;;;;;;21.99;100.00;100046.87;1647295;87;21069;-67
2022/08/10 00:09:07;;;;;;;4.78;1.52;;;;;;;22.02;100.00;100048.12;1647400;87;21064;-65
2022/08/10 00:11:40;;;;;;;2.52;1.40;;;;;;;22.10;100.00;100054.59;1646842;87;21105;-71
2022/08/10 00:14:09;;;;;;;2.17;1.52;;;;;;;22.03;100.00;100062.92;1646731;87;21101;-66
2022/08/10 00:16:38;;;;;;;6.00;1.80;;;;;;;22.15;100.00;100063.23;1646767;85;21864;-66
2022/08/10 00:19:05;;;;;;;6.22;1.98;;;;;;;22.16;100.00;100060.05;1650588;86;21072;-66
2022/08/10 00:21:33;;;;;;;2.90;1.50;;;;;;;22.19;100.00;100062.09;1650641;86;21620;-69
2022/08/10 00:24:07;;;;;;;5.87;1.85;;;;;;;22.21;100.00;100057.50;1627635;86;21108;-66
2022/08/10 00:26:35;;;;;;;3.87;1.67;;;;;;;22.18;100.00;100056.26;1655378;86;21073;-67
2022/08/10 00:29:19;;;;;;;3.52;1.80;;;;;;;22.21;100.00;100051.27;1654945;86;21240;-69
2022/08/10 00:31:59;;;;;;;6.58;1.32;;;;;;;22.13;100.00;100049.02;1654078;86;21145;-68
2022/08/10 00:34:47;;;;;;;3.27;1.60;;;;;;;22.15;100.00;100040.80;1655114;86;21167;-68
2022/08/10 00:37:30;;;;;;;2.98;1.75;;;;;;;22.12;100.00;100041.80;1653034;86;21159;-70
2022/08/10 00:40:00;;;;;;;4.58;1.55;;;;;;;22.03;100.00;100040.48;1651256;86;21077;-67
2022/08/10 00:42:33;;;;;;;9.23;1.70;;;;;;;22.03;100.00;100048.31;1655120;86;21819;-67
2022/08/10 00:45:05;;;;;;;4.90;1.70;;;;;;;22.04;100.00;100047.11;1655035;86;21033;-70
2022/08/10 00:47:36;;;;;;;2.42;1.57;;;;;;;21.93;100.00;100047.61;1655137;86;21124;-67
2022/08/10 00:50:07;;;;;;;1.77;1.50;;;;;;;21.87;100.00;100045.16;1652081;86;21006;-68
2022/08/10 00:52:36;;;;;;;7.60;1.50;;;;;;;21.98;100.00;100038.26;1655520;86;21050;-67
2022/08/10 00:55:07;;;;;;;6.45;1.85;;;;;;;22.00;100.00;100037.88;1655185;85;21029;-71
2022/08/10 00:57:35;;;;;;;7.95;2.30;;;;;;;22.01;100.00;100042.28;1655587;86;21033;-67
2022/08/10 01:00:04;;;;;;;3.37;1.92;;;;;;;21.92;100.00;100036.20;1655481;86;21064;-66
2022/08/10 01:02:36;;;;;;;2.35;1.60;;;;;;;21.82;100.00;100032.88;1653366;86;21517;-66
2022/08/10 01:05:10;;;;;;;3.42;1.82;;;;;;;21.81;100.00;100034.67;1655588;86;21025;-66
2022/08/10 01:08:21;;;;;;;5.92;2.00;;;;;;;21.81;100.00;100030.47;1655241;85;21385;-66
2022/08/10 01:11:12;;;;;;;4.92;1.95;;;;;;;21.81;100.00;100034.67;1655281;86;21087;-65
2022/08/10 01:14:00;;;;;;;3.37;1.85;;;;;;;21.85;100.00;100043.33;1653638;86;21041;-66
2022/08/10 01:16:35;;;;;;;5.97;2.40;;;;;;;21.85;100.00;100034.13;1648489;86;21113;-68
2022/08/10 01:19:30;;;;;;;5.75;2.40;;;;;;;21.83;100.00;100042.11;1647275;87;21371;-69
2022/08/10 01:22:35;;;;;;;6.58;2.15;;;;;;;21.83;100.00;100038.72;1638838;86;21155;-68
2022/08/10 01:25:50;;;;;;;5.10;2.95;;;;;;;21.74;100.00;100036.19;1646303;87;21069;-69
2022/08/10 01:28:37;;;;;;;3.77;2.35;;;;;;;21.70;100.00;100041.56;1647527;86;21013;-67
2022/08/10 01:31:04;;;;;;;7.67;2.37;;;;;;;21.72;100.00;100044.17;1646611;87;21025;-69
2022/08/10 01:33:35;;;;;;;5.12;2.10;;;;;;;21.71;100.00;100041.76;1647549;87;21026;-67
2022/08/10 01:36:11;;;;;;;7.90;2.67;;;;;;;21.72;100.00;100042.77;1647003;87;21026;-67
2022/08/10 01:38:44;;;;;;;14.85;2.58;;;;;;;21.68;100.00;100039.14;1626426;86;21060;-75
2022/08/10 01:41:27;;;;;;;3.85;2.02;;;;;;;21.67;100.00;100037.51;1643973;87;21156;-70
2022/08/10 01:44:15;;;;;;;3.77;1.95;;;;;;;21.63;100.00;100037.47;1645711;87;21093;-65
2022/08/10 01:46:49;;;;;;;5.62;2.00;;;;;;;21.61;100.00;100038.47;1646356;87;21093;-67
2022/08/10 01:49:18;;;;;;;5.20;1.97;;;;;;;21.62;100.00;100038.67;1647206;87;21082;-66
2022/08/10 01:51:51;;;;;;;5.60;2.90;;;;;;;21.57;100.00;100036.80;1631585;86;21010;-66
2022/08/10 01:54:24;;;;;;;6.33;2.20;;;;;;;21.54;100.00;100041.19;1652418;86;21267;-66
2022/08/10 01:56:57;;;;;;;7.08;2.30;;;;;;;21.54;100.00;100042.59;1644767;87;21553;-67
2022/08/10 01:59:35;;;;;;;6.95;2.45;;;;;;;21.53;100.00;100047.96;1624552;87;21518;-66
2022/08/10 02:02:11;;;;;;;5.30;2.17;;;;;;;21.47;100.00;100055.11;1645755;87;21300;-67
2022/08/10 02:04:43;;;;;;;4.47;2.15;;;;;;;21.47;100.00;100045.30;1650994;86;21055;-68
2022/08/10 02:07:20;;;;;;;4.95;2.02;;;;;;;21.34;100.00;100039.16;1641728;87;21124;-68
2022/08/10 02:09:53;;;;;;;5.22;2.20;;;;;;;21.21;100.00;100035.19;1647119;87;21097;-67
2022/08/10 02:12:25;;;;;;;3.90;1.77;;;;;;;21.16;100.00;100040.54;1647579;87;21157;-68
2022/08/10 02:15:10;;;;;;;9.70;2.22;;;;;;;21.22;100.00;100048.00;1644252;87;21558;-68
2022/08/10 02:17:40;;;;;;;3.92;1.82;;;;;;;21.36;100.00;100036.78;1646689;86;21598;-69
2022/08/10 02:20:20;;;;;;;4.60;1.85;;;;;;;21.22;100.00;100031.80;1646745;87;21069;-68
2022/08/10 02:22:58;;;;;;;4.72;1.90;;;;;;;21.17;100.00;100030.16;1630489;87;21085;-70
2022/08/10 02:25:25;;;;;;;4.00;1.62;;;;;;;21.15;100.00;100034.70;1652112;86;21014;-67
2022/08/10 02:27:55;;;;;;;3.62;1.60;;;;;;;21.16;100.00;100039.14;1640827;87;21255;-70
2022/08/10 02:30:28;;;;;;;5.70;1.92;;;;;;;21.19;100.00;100040.36;1640345;86;21049;-67
2022/08/10 02:32:59;;;;;;;3.02;1.57;;;;;;;21.11;100.00;100033.87;1644773;85;21517;-72
2022/08/10 02:35:25;;;;;;;3.55;1.80;;;;;;;21.09;100.00;100029.23;1643157;85;21025;-67
2022/08/10 02:37:56;;;;;;;6.67;2.00;;;;;;;20.90;100.00;100023.14;1626770;86;22164;-66
2022/08/10 02:40:27;;;;;;;3.52;1.67;;;;;;;20.89;100.00;100029.94;1646074;87;21272;-71
2022/08/10 02:43:14;;;;;;;4.22;2.40;;;;;;;20.98;100.00;100043.70;1647174;85;21065;-68
2022/08/10 02:45:47;;;;;;;2.52;1.52;;;;;;;20.94;100.00;100048.42;1643546;85;21037;-70
2022/08/10 02:48:31;;;;;;;4.12;2.05;;;;;;;20.97;100.00;100049.06;1662576;85;21077;-67
2022/08/10 02:51:02;;;;;;;9.35;2.08;;;;;;;20.95;100.00;100043.06;1645446;85;21038;-67
2022/08/10 02:53:42;;;;;;;7.53;2.00;;;;;;;20.82;100.00;100043.83;1620736;87;21269;-68
2022/08/10 02:56:40;;;;;;;3.25;1.42;;;;;;;20.76;100.00;100033.57;1647204;85;21716;-69
2022/08/10 02:59:19;;;;;;;4.12;1.95;;;;;;;20.77;100.00;100035.17;1645517;85;21089;-71
2022/08/10 03:01:51;;;;;;;2.95;1.45;;;;;;;20.82;100.00;100034.84;1649205;85;21046;-67
2022/08/10 03:04:35;;;;;;;2.90;1.82;;;;;;;20.84;100.00;100036.69;1645056;85;21085;-69
2022/08/10 03:07:08;;;;;;;6.15;2.22;;;;;;;20.78;100.00;100048.79;1644991;85;21537;-68
2022/08/10 03:09:37;;;;;;;5.30;1.92;;;;;;;20.77;100.00;100044.39;1646365;85;21045;-68
2022/08/10 03:12:07;;;;;;;8.00;1.87;;;;;;;20.80;100.00;100050.63;1646033;85;21116;-68
2022/08/10 03:14:37;;;;;;;3.95;1.95;;;;;;;20.79;100.00;100049.61;1627542;86;21062;-69
2022/08/10 03:17:06;;;;;;;3.00;1.92;;;;;;;20.71;100.00;100054.89;1630231;85;21112;-68
2022/08/10 03:19:32;;;;;;;5.60;2.42;;;;;;;20.67;100.00;100057.05;1627706;86;21243;-71
2022/08/10 03:22:02;;;;;;;7.45;2.85;;;;;;;20.41;100.00;100057.81;1646922;86;21605;-67
2022/08/10 03:24:29;;;;;;;7.45;3.35;;;;;;;20.65;100.00;100046.81;1645544;87;21092;-68
2022/08/10 03:26:56;;;;;;;8.38;4.10;;;;;;;20.56;100.00;100057.45;1644388;87;21073;-67
2022/08/10 03:29:26;;;;;;;9.65;3.98;;;;;;;20.69;100.00;100070.66;1647170;87;21061;-69
2022/08/10 03:31:56;;;;;;;8.25;3.67;;;;;;;20.76;100.00;100067.95;1646827;87;22150;-74
2022/08/10 03:34:22;;;;;;;5.87;3.37;;;;;;;20.47;100.00;100078.70;1618689;87;21010;-66
2022/08/10 03:36:50;;;;;;;6.83;3.05;;;;;;;20.46;100.00;100079.07;1652275;86;21090;-66
2022/08/10 03:39:18;;;;;;;7.08;2.90;;;;;;;20.44;100.00;100080.84;1652591;86;21182;-70
2022/08/10 03:41:51;;;;;;;2.90;2.05;;;;;;;20.61;100.00;100077.34;1646906;87;21140;-69
2022/08/10 03:44:22;;;;;;;5.87;2.10;;;;;;;20.70;100.00;100066.67;1647226;87;21165;-68
2022/08/10 03:46:52;;;;;;;3.77;1.98;;;;;;;20.72;100.00;100066.29;1622609;87;21037;-69
2022/08/10 03:49:19;;;;;;;3.65;1.67;;;;;;;20.74;100.00;100061.95;1606199;87;21116;-68
2022/08/10 03:51:48;;;;;;;6.83;1.92;;;;;;;20.75;100.00;100059.94;1647201;87;21065;-69
2022/08/10 03:54:19;;;;;;;3.65;1.50;;;;;;;20.77;100.00;100065.38;1618692;87;21382;-65
2022/08/10 03:56:50;;;;;;;5.85;1.87;;;;;;;20.79;100.00;100070.61;1646722;87;21165;-66
2022/08/10 03:59:19;;;;;;;7.03;1.80;;;;;;;20.80;100.00;100056.81;1643521;87;21558;-69
2022/08/10 04:01:49;;;;;;;3.33;2.10;;;;;;;20.79;100.00;100056.61;1646697;87;21082;-68
2022/08/10 04:04:20;;;;;;;1.70;1.50;;;;;;;20.80;100.00;100052.61;1644965;87;21042;-68
2022/08/10 04:06:51;;;;;;;3.22;1.95;;;;;;;20.82;100.00;100045.23;1646058;87;21526;-65
2022/08/10 04:09:19;;;;;;;2.67;2.27;;;;;;;20.84;100.00;100040.88;1643978;87;21768;-67
2022/08/10 04:11:46;;;;;;;5.58;2.12;;;;;;;20.90;100.00;100035.16;1646719;87;21161;-67
2022/08/10 04:14:18;;;;;;;7.85;2.35;;;;;;;20.97;100.00;100030.28;1644551;86;21061;-67
2022/08/10 04:16:47;;;;;;;5.78;2.17;;;;;;;21.00;100.00;100039.31;1645259;85;21065;-68
2022/08/10 04:19:17;;;;;;;7.58;2.27;;;;;;;20.95;100.00;100040.26;1643423;85;21605;-69
2022/08/10 04:22:02;;;;;;;10.05;2.37;;;;;;;20.91;100.00;100043.77;1642175;86;21841;-68
2022/08/10 04:24:33;;;;;;;7.92;3.90;;;;;;;20.90;100.00;100044.14;1640707;87;21082;-72
2022/08/10 04:27:03;;;;;;;3.08;1.82;;;;;;;20.98;100.00;100057.70;1640335;87;21069;-67
2022/08/10 04:29:31;;;;;;;3.17;1.62;;;;;;;21.02;100.00;100066.94;1618746;87;21331;-69
2022/08/10 04:32:00;;;;;;;6.87;2.30;;;;;;;21.10;100.00;100070.66;1639550;87;21112;-69
2022/08/10 04:34:30;;;;;;;7.33;2.15;;;;;;;21.19;100.00;100067.59;1616042;87;21209;-70
2022/08/10 04:37:00;;;;;;;5.75;2.30;;;;;;;21.20;100.00;100081.80;1643029;87;21018;-67
2022/08/10 04:39:26;;;;;;;4.30;1.98;;;;;;;21.25;100.00;100090.69;1641908;87;21050;-69
2022/08/10 04:45:34;;;;;;;6.70;2.77;;;;;;;21.30;100.00;100082.53;1613926;87;21097;-70
2022/08/10 04:48:06;;;;;;;10.82;2.33;;;;;;;21.25;100.00;100079.48;1637907;87;21856;-70
2022/08/10 04:50:34;;;;;;;6.97;2.20;;;;;;;21.34;100.00;100074.97;1642681;87;21081;-67
2022/08/10 04:53:05;;;;;;;7.53;2.25;;;;;;;21.42;100.00;100078.68;1639893;87;21033;-66
2022/08/10 04:55:33;;;;;;;19.73;2.75;;;;;;;21.47;100.00;100074.73;1643038;87;21038;-73
2022/08/10 04:58:06;;;;;;;8.13;2.80;;;;;;;21.47;100.00;100076.12;1638928;87;21101;-69
2022/08/10 05:00:37;;;;;;;7.20;2.17;;;;;;;21.53;100.00;100074.59;1640150;87;21167;-65
2022/08/10 05:03:08;;;;;;;5.87;3.12;;;;;;;21.60;100.00;100074.68;1641734;87;21031;-67
2022/08/10 05:05:50;;;;;;;11.50;2.35;;;;;;;21.58;100.00;100079.07;1637766;87;21573;-67
2022/08/10 05:08:21;;;;;;;5.10;2.90;;;;;;;21.61;100.00;100080.52;1643452;87;21085;-68
2022/08/10 05:10:48;;;;;;;9.40;2.67;;;;;;;21.65;100.00;100077.14;1643355;87;21035;-66
2022/08/10 05:13:18;;;;;;;4.45;1.98;;;;;;;21.70;100.00;100075.98;1643170;87;21596;-67
2022/08/10 05:15:52;;;;;;;10.05;2.83;;;;;;;21.70;100.00;100073.19;1641582;87;21029;-68
2022/08/10 05:18:24;;;;;;;4.72;2.42;;;;;;;21.74;100.00;100080.23;1644663;85;21052;-73
2022/08/10 05:20:51;;;;;;;4.92;2.20;;;;;;;21.75;100.00;100079.06;1643318;87;21070;-70
2022/08/10 05:23:22;;;;;;;4.12;2.42;;;;;;;21.74;100.00;100074.63;1642899;87;21085;-67
2022/08/10 05:25:49;;;;;;;7.50;3.00;;;;;;;21.78;100.00;100071.28;1642875;87;21521;-70
2022/08/10 05:28:20;;;;;;;6.65;2.65;;;;;;;21.79;100.00;100074.91;1643470;87;21187;-72
2022/08/10 05:30:45;;;;;;;10.20;2.40;;;;;;;21.82;100.00;100070.74;1612250;87;21034;-66
2022/08/10 05:33:14;;;;;;;11.30;3.00;;;;;;;21.89;100.00;100076.44;1643336;85;21055;-69
2022/08/10 05:35:43;;;;;;;9.20;2.83;;;;;;;21.94;100.00;100078.08;1644554;85;21481;-67
2022/08/10 05:38:10;;;;;;;4.92;2.60;;;;;;;21.99;100.00;100077.73;1644093;86;21174;-67
2022/08/10 05:40:46;;;;;;;5.45;2.47;;;;;;;21.96;100.00;100081.31;1641975;87;21074;-72
2022/08/10 05:43:20;;;;;;;9.90;3.30;;;;;;;21.93;100.00;100092.48;1640923;85;21513;-69
2022/08/10 05:45:53;;;;;;;5.97;2.58;;;;;;;21.98;100.00;100101.37;1642271;87;21069;-69
2022/08/10 05:48:28;;;;;;;6.42;2.60;;;;;;;22.06;100.00;100102.23;1642281;87;21028;-67
2022/08/10 05:50:59;;;;;;;6.25;3.27;;;;;;;22.10;100.00;100105.08;1636122;86;20998;-68
2022/08/10 05:53:25;;;;;;;3.15;2.12;;;;;;;22.10;100.00;100107.30;1638313;87;21641;-67
2022/08/10 05:56:00;;;;;;;8.35;2.60;;;;;;;22.15;100.00;100112.34;1643122;85;21065;-68
2022/08/10 05:58:29;;;;;;;6.45;2.30;;;;;;;22.22;100.00;100109.61;1642643;87;21089;-70
2022/08/10 06:00:58;;;;;;;7.22;2.33;;;;;;;22.30;100.00;100094.45;1643424;85;21064;-71
2022/08/10 06:03:31;;;;;;;8.58;2.37;;;;;;;22.42;100.00;100096.74;1640847;87;21045;-66
2022/08/10 06:06:03;;;;;;;6.42;2.58;;;;;;;22.49;100.00;100090.61;1642974;87;21101;-67
2022/08/10 06:08:33;;;;;;;6.47;2.98;;;;;;;22.54;100.00;100084.41;1616808;87;20994;-70
2022/08/10 06:11:06;;;;;;;10.55;3.00;;;;;;;22.45;100.00;100079.94;1643544;87;21077;-67
2022/08/10 06:16:22;;;;;;;9.85;2.92;;;;;;;22.24;100.00;100081.97;1642430;87;22356;-68
2022/08/10 06:18:58;;;;;;;12.58;4.03;;;;;;;22.17;100.00;100079.91;1619821;87;21039;-70
2022/08/10 06:21:31;;;;;;;14.45;4.85;;;;;;;22.23;100.00;100085.95;1647072;85;21072;-67
2022/08/10 06:24:01;;;;;;;9.43;3.92;;;;;;;22.26;100.00;100086.61;1652105;86;21140;-66
2022/08/10 06:26:29;;;;;;;11.90;4.50;;;;;;;22.26;100.00;100085.20;1643848;87;21052;-68
2022/08/10 06:29:02;;;;;;;13.53;4.47;;;;;;;22.33;100.00;100090.08;1647331;86;21116;-66
2022/08/10 06:31:34;;;;;;;13.53;4.20;;;;;;;22.24;100.00;100088.98;1644560;86;21085;-67
2022/08/10 06:34:09;;;;;;;10.13;3.60;;;;;;;22.24;100.00;100084.20;1646854;87;21104;-67
2022/08/10 06:36:44;;;;;;;7.80;3.35;;;;;;;22.29;100.00;100090.04;1645159;87;21533;-67
2022/08/10 06:39:13;;;;;;;8.53;2.92;;;;;;;22.37;100.00;100084.70;1644004;87;21052;-67
2022/08/10 06:42:01;;;;;;;10.95;3.35;;;;;;;22.44;100.00;100081.73;1647323;87;21057;-67
2022/08/10 06:44:36;;;;;;;13.60;4.80;;;;;;;22.47;100.00;100078.95;1644054;87;21097;-70
2022/08/10 06:47:11;;;;;;;18.85;4.12;;;;;;;22.49;100.00;100079.97;1646525;87;21017;-68
2022/08/10 06:49:43;;;;;;;6.05;3.37;;;;;;;22.43;100.00;100082.94;1642392;87;21128;-68
2022/08/10 06:52:11;;;;;;;11.70;4.13;;;;;;;22.45;100.00;100082.74;1644111;87;21061;-66
2022/08/10 06:54:43;;;;;;;9.78;3.20;;;;;;;22.49;100.00;100080.78;1646839;87;21082;-66
2022/08/10 06:57:16;;;;;;;8.38;3.33;;;;;;;22.60;100.00;100093.48;1643234;87;21042;-66
2022/08/10 06:59:44;;;;;;;14.93;2.98;;;;;;;22.71;100.00;100094.19;1629818;87;21093;-65
2022/08/10 07:02:30;;;;;;;9.50;3.35;;;;;;;22.80;100.00;100086.25;1644499;87;21097;-67
2022/08/10 07:05:04;;;;;;;13.08;3.27;;;;;;;22.88;100.00;100091.30;1644914;87;21061;-68
2022/08/10 07:10:37;;;;;;;6.83;2.60;;;;;;;23.03;100.00;100081.58;1644174;87;21049;-71
2022/08/10 07:13:11;;;;;;;7.03;2.93;;;;;;;22.89;100.00;100075.27;1630957;87;21041;-67
2022/08/10 07:15:41;;;;;;;7.03;2.90;;;;;;;22.84;100.00;100067.41;1619896;87;21058;-67
2022/08/10 07:18:09;;;;;;;8.70;3.00;;;;;;;22.84;100.00;100075.83;1648229;85;21118;-67
2022/08/10 07:20:43;;;;;;;11.43;3.27;;;;;;;22.90;100.00;100076.28;1640759;87;21347;-66
2022/08/10 07:23:13;;;;;;;10.10;3.08;;;;;;;22.94;100.00;100079.92;1641257;87;21525;-66
2022/08/10 07:25:45;;;;;;;15.43;4.10;;;;;;;23.03;100.00;100082.36;1693343;84;21572;-68
2022/08/10 07:28:16;;;;;;;6.90;3.62;;;;;;;23.04;100.00;100069.12;1692521;84;21549;-68
2022/08/10 07:31:02;;;;;;;9.65;3.42;;;;;;;23.12;100.00;100070.77;1668363;84;21061;-68
2022/08/10 07:33:28;;;;;;;7.12;3.17;;;;;;;23.26;100.00;100060.80;1689062;84;21251;-67
2022/08/10 07:35:56;;;;;;;8.23;3.08;;;;;;;23.26;100.00;100053.19;1693120;84;21069;-71
2022/08/10 07:38:26;;;;;;;7.37;2.75;;;;;;;23.30;100.00;100061.02;1693016;84;21001;-68
2022/08/10 07:40:55;;;;;;;4.00;2.10;;;;;;;23.33;100.00;100056.63;1689067;84;21099;-67
2022/08/10 07:43:34;;;;;;;9.13;2.10;;;;;;;23.39;100.00;100066.89;1652502;84;21000;-70
2022/08/10 07:46:03;;;;;;;5.90;2.77;;;;;;;23.33;100.00;100078.52;1690941;84;21779;-68
2022/08/10 07:48:44;;;;;;;4.97;2.02;;;;;;;23.21;100.00;100077.45;1692937;84;21100;-66
2022/08/10 07:51:21;;;;;;;6.03;2.58;;;;;;;23.17;100.00;100083.64;1689569;84;21584;-68
2022/08/10 07:53:53;;;;;;;9.35;3.50;;;;;;;23.16;100.00;100085.66;1667624;84;21064;-68
2022/08/10 07:56:32;;;;;;;5.60;2.37;;;;;;;23.15;100.00;100069.20;1692978;84;21044;-67
2022/08/10 07:59:15;;;;;;;7.55;2.60;;;;;;;23.25;100.00;100065.64;1691763;82;21010;-70
2022/08/10 08:01:49;;;;;;;5.03;2.67;;;;;;;23.23;100.00;100064.59;1690954;84;21020;-66
2022/08/10 08:04:25;;;;;;;5.50;2.00;;;;;;;23.17;100.00;100072.39;1689797;84;21052;-70
2022/08/10 08:07:09;;;;;;;6.53;2.62;;;;;;;23.29;100.00;100066.44;1692092;84;21063;-68
2022/08/10 08:09:43;;;;;;;3.87;3.00;;;;;;;23.32;100.00;100067.67;1688534;84;21013;-72
2022/08/10 08:12:23;;;;;;;5.58;3.00;;;;;;;23.23;100.00;100073.03;1693215;84;21069;-67
2022/08/10 08:14:55;;;;;;;5.37;2.65;;;;;;;23.09;100.00;100076.59;1691334;84;21061;-68
2022/08/10 08:17:29;;;;;;;4.13;2.10;;;;;;;23.08;100.00;100079.80;1693065;83;21021;-67
2022/08/10 08:19:55;;;;;;;2.75;2.35;;;;;;;23.08;100.00;100072.78;1675737;84;21036;-68
2022/08/10 08:22:27;;;;;;;3.85;2.62;;;;;;;23.13;100.00;100076.62;1693006;83;21442;-69
2022/08/10 08:24:58;;;;;;;5.60;2.87;;;;;;;23.13;100.00;100064.56;1692679;83;21265;-69
2022/08/10 08:27:27;;;;;;;7.22;2.20;;;;;;;23.20;100.00;100060.39;1692876;82;21031;-66
2022/08/10 08:30:03;;;;;;;9.65;2.42;;;;;;;23.25;100.00;100066.23;1689349;84;21041;-68
2022/08/10 08:32:31;;;;;;;8.35;2.20;;;;;;;23.36;100.00;100071.29;1693003;82;21033;-66
2022/08/10 08:35:15;;;;;;;9.43;2.65;;;;;;;23.53;100.00;100076.81;1673916;84;21109;-67
2022/08/10 08:37:48;;;;;;;3.00;1.95;;;;;;;23.57;100.00;100069.80;1692848;83;21852;-67
2022/08/10 08:40:32;;;;;;;5.22;2.30;;;;;;;23.58;100.00;100071.39;1689707;83;21082;-67
2022/08/10 08:43:02;;;;;;;;;;;;;;;23.58;100.00;100063.77;1694437;83;21092;-66
2022/08/10 08:45:56;;;;;;;2.92;2.10;;;;;;;23.64;100.00;100057.77;1694466;83;22210;-69
2022/08/10 08:49:27;;;;;;;3.50;2.02;;;;;;;23.68;100.00;100062.19;1692238;83;21025;-69
2022/08/10 08:52:23;;;;;;;6.80;2.77;;;;;;;23.75;100.00;100062.80;1691799;83;21155;-67
2022/08/10 08:55:30;;;;;;;4.25;2.20;;;;;;;23.79;100.00;100079.10;1665021;84;21562;-66
2022/08/10 08:58:13;;;;;;;6.08;2.80;;;;;;;23.82;100.00;100074.08;1694079;83;21393;-65
2022/08/10 09:01:17;;;;;;;4.30;2.37;;;;;;;23.84;100.00;100080.71;1690815;84;21139;-71
2022/08/10 09:04:25;;;;;;;2.87;2.25;;;;;;;23.92;100.00;100078.70;1690534;83;21079;-66
2022/08/10 09:07:26;;;;;;;7.53;2.22;;;;;;;23.91;100.00;100080.73;1719849;82;21175;-64
2022/08/10 09:10:22;;;;;;;5.40;2.30;;;;;;;23.98;100.00;100078.54;1694481;83;21127;-65
2022/08/10 09:13:25;;;;;;;3.02;2.40;;;;;;;24.05;100.00;100075.71;1679527;84;21042;-65
2022/08/10 09:16:18;;;;;;;2.42;2.17;;;;;;;23.98;100.00;100065.88;1693660;83;21009;-69
2022/08/10 09:19:35;;;;;;;4.75;2.42;;;;;;;24.13;100.00;100062.47;1688692;83;21013;-66
2022/08/10 09:22:27;;;;;;;2.87;2.55;;;;;;;24.34;100.00;100064.31;1683434;85;21242;-68
2022/08/10 09:25:27;;;;;;;5.45;2.62;;;;;;;24.53;100.00;100067.34;1691166;83;21079;-67
2022/08/10 09:28:09;;;;;;;5.53;2.80;;;;;;;24.61;100.00;100055.45;1689492;82;21148;-65
2022/08/10 09:30:45;;;;;;;7.00;2.95;;;;;;;24.57;100.00;100057.48;1688980;83;21021;-68
2022/08/10 09:33:18;;;;;;;3.67;2.75;;;;;;;24.55;100.00;100062.89;1684890;84;21128;-70
2022/08/10 09:36:16;;;;;;;3.83;2.92;;;;;;;24.57;100.00;100065.30;1681232;83;21532;-66
2022/08/10 09:38:54;;;;;;;18.42;4.55;;;;;;;24.70;100.00;100062.08;1684559;81;21508;-69
2022/08/10 09:42:00;;;;;;;7.45;3.25;;;;;;;24.80;100.00;100063.45;1683383;83;21065;-66
2022/08/10 09:45:01;;;;;;;8.38;2.33;;;;;;;24.90;100.00;100069.48;1682507;83;20997;-66
2022/08/10 09:47:36;;;;;;;8.08;3.30;;;;;;;25.03;100.00;100065.64;1640601;85;21658;-65
2022/08/10 09:50:17;;;;;;;7.95;3.02;;;;;;;25.06;100.00;100059.81;1686832;83;21143;-68
2022/08/10 09:53:27;;;;;;;10.48;2.92;;;;;;;25.00;100.00;100054.59;1601499;88;21074;-63
2022/08/10 09:56:29;;;;;;;3.92;2.60;;;;;;;25.00;100.00;100053.19;1687444;83;21076;-66
2022/08/10 09:59:29;;;;;;;2.85;2.17;;;;;;;25.02;100.00;100045.73;1687998;83;21108;-66
2022/08/10 10:02:12;;;;;;;5.67;3.10;;;;;;;25.06;100.00;100042.91;1690458;83;21052;-67
2022/08/10 10:05:15;;;;;;;6.22;2.85;;;;;;;25.12;100.00;100035.03;1687315;83;21175;-66
2022/08/10 10:07:47;;;;;;;4.22;2.52;;;;;;;25.26;100.00;100033.36;1670461;85;21009;-65
2022/08/10 10:10:27;;;;;;;6.00;3.52;;;;;;;25.30;100.00;100030.53;1683944;84;21041;-65
2022/08/10 10:13:12;;;;;;;7.83;3.05;;;;;;;25.33;100.00;100033.34;1684544;83;21565;-65
2022/08/10 10:16:14;;;;;;;6.62;3.08;;;;;;;25.35;100.00;100039.98;1684839;83;21021;-66
2022/08/10 10:19:27;;;;;;;3.75;3.08;;;;;;;25.33;100.00;100039.58;1668528;85;21242;-65
2022/08/10 10:22:40;;;;;;;4.45;2.98;;;;;;;25.44;100.00;100033.27;1654226;84;21038;-66
2022/08/10 10:25:21;;;;;;;5.53;3.27;;;;;;;25.50;100.00;100027.38;1661351;85;21093;-66
2022/08/10 10:27:58;;;;;;;5.33;3.12;;;;;;;25.43;100.00;100014.75;1658318;86;21108;-66
2022/08/10 10:30:25;;;;;;;6.25;3.08;;;;;;;25.44;100.00;100023.40;1654333;86;21100;-66
2022/08/10 10:33:18;;;;;;;4.58;3.52;;;;;;;25.38;100.00;100022.23;1659785;86;21761;-67
2022/08/10 10:35:53;;;;;;;5.60;3.80;;;;;;;25.37;100.00;100020.02;1662552;84;21316;-66
2022/08/10 10:38:27;;;;;;;8.13;3.02;;;;;;;25.39;100.00;100020.41;1660327;86;21072;-65
2022/08/10 10:41:02;;;;;;;4.53;2.83;;;;;;;25.37;100.00;100017.78;1660597;85;21057;-67
2022/08/10 10:43:59;;;;;;;6.35;3.05;;;;;;;25.40;100.00;100010.72;1656510;85;21109;-67
2022/08/10 10:46:53;;;;;;;5.00;3.30;;;;;;;25.49;100.00;100009.47;1659840;84;21167;-68
2022/08/10 10:50:03;;;;;;;5.37;3.40;;;;;;;25.58;100.00;100008.42;1737822;80;21323;-72
2022/08/10 10:52:55;;;;;;;4.40;3.37;;;;;;;25.75;100.00;100010.16;1739490;81;21088;-66
2022/08/10 10:55:48;;;;;;;;;;;;;;;25.85;100.00;100001.41;1744995;81;21077;-66
2022/08/10 10:58:42;;;;;;;5.97;3.20;;;;;;;25.87;100.00;100011.08;1724375;82;20247;-66
2022/08/10 11:01:23;;;;;;;4.40;3.25;;;;;;;26.05;100.00;100002.28;1715670;82;21804;-65
2022/08/10 11:04:06;;;;;;;3.72;3.08;;;;;;;26.06;100.00;100010.33;1724395;82;21039;-65
2022/08/10 11:06:55;;;;;;;4.65;3.00;;;;;;;26.08;100.00;100008.50;1703783;83;21050;-66
2022/08/10 11:09:35;;;;;;;8.25;3.25;;;;;;;26.05;100.00;100004.48;1721024;83;21042;-66
2022/08/10 11:12:11;;;;;;;3.17;2.85;;;;;;;26.00;100.00;99998.67;1721044;82;21086;-70
2022/08/10 11:14:59;;;;;;;6.30;2.85;;;;;;;25.96;100.00;99991.47;1723375;82;21125;-65
2022/08/10 11:17:33;;;;;;;5.92;3.00;;;;;;;25.97;100.00;100000.11;1723081;83;20975;-65
2022/08/10 11:20:20;;;;;;;3.67;3.25;;;;;;;25.93;100.00;99998.73;1724016;82;28301;-65
2022/08/10 11:23:07;;;;;;;3.95;3.00;;;;;;;25.91;100.00;100000.37;1723568;82;21065;-65
2022/08/10 11:25:38;;;;;;;7.40;3.15;;;;;;;25.91;100.00;100002.59;1721569;83;21483;-74
2022/08/10 11:28:13;;;;;;;3.60;2.80;;;;;;;25.93;100.00;99994.49;1724482;82;21902;-66
2022/08/10 11:31:16;;;;;;;3.75;3.08;;;;;;;25.93;100.00;100000.14;1723324;83;21029;-64
2022/08/10 11:34:12;;;;;;;5.78;3.47;;;;;;;25.93;100.00;99998.73;1724605;82;20998;-66
2022/08/10 11:36:52;;;;;;;6.47;3.52;;;;;;;25.79;100.00;100003.08;1723191;83;21553;-66
2022/08/10 11:39:53;;;;;;;3.58;3.17;;;;;;;25.72;100.00;99999.10;1722628;82;21117;-66
2022/08/10 11:42:30;;;;;;;3.98;2.75;;;;;;;25.76;100.00;100003.31;1725055;82;21094;-65
2022/08/10 11:45:06;;;;;;;6.55;3.35;;;;;;;25.78;100.00;99988.79;1721121;82;21479;-65
2022/08/10 11:47:56;;;;;;;3.75;2.60;;;;;;;25.83;100.00;99996.81;1704543;83;21502;-71
2022/08/10 11:50:27;;;;;;;5.30;2.67;;;;;;;25.89;100.00;100000.19;1683618;83;21028;-65
2022/08/10 11:53:31;;;;;;;12.95;3.55;;;;;;;25.90;100.00;99989.69;1706715;82;20986;-65
2022/08/10 11:56:06;;;;;;;4.60;3.02;;;;;;;25.80;100.00;99992.78;1708821;83;21498;-65
2022/08/10 12:01:28;;;;;;;5.80;2.70;;;;;;;25.83;100.00;99997.59;1716889;82;21042;-66
2022/08/10 12:03:56;;;;;;;6.12;2.65;;;;;;;25.81;100.00;99997.83;1719695;83;21678;-70
2022/08/10 12:06:26;;;;;;;2.72;2.45;;;;;;;25.80;100.00;100000.44;1694952;82;21109;-64
2022/08/10 12:08:54;;;;;;;3.67;2.83;;;;;;;25.79;100.00;100001.06;1706477;83;21155;-67
2022/08/10 12:11:26;;;;;;;5.17;2.40;;;;;;;25.82;100.00;99989.55;1689742;83;21043;-68
2022/08/10 12:14:15;;;;;;;6.30;2.60;;;;;;;25.76;100.00;99991.39;1717391;82;21064;-66
2022/08/10 12:16:45;;;;;;;5.83;2.30;;;;;;;25.72;100.00;99989.83;1709806;83;21051;-70